createdAt,value
2023-04-15T00:00:30.106Z,60.50
2023-04-15T00:02:58.358Z,60.50
2023-04-15T00:05:26.742Z,60.60
2023-04-15T00:07:56.181Z,60.60
2023-04-15T00:10:24.328Z,60.80
2023-04-15T00:12:53.297Z,60.60
2023-04-15T00:15:22.415Z,60.70
2023-04-15T00:17:52.136Z,60.90
2023-04-15T00:20:20.361Z,61.10
2023-04-15T00:22:48.689Z,60.90
2023-04-15T00:25:18.279Z,60.70
2023-04-15T00:27:46.335Z,60.70
2023-04-15T00:30:14.501Z,60.50
2023-04-15T00:32:42.852Z,60.60
2023-04-15T00:35:11.015Z,60.80
2023-04-15T00:37:39.095Z,60.90
2023-04-15T00:40:11.782Z,61.00
2023-04-15T00:42:41.309Z,61.10
2023-04-15T00:45:10.318Z,61.40
2023-04-15T00:47:40.388Z,61.60
2023-04-15T00:50:10.005Z,61.80
2023-04-15T00:52:38.272Z,62.20
2023-04-15T00:55:09.072Z,62.30
2023-04-15T00:57:37.426Z,62.50
2023-04-15T01:00:11.513Z,62.50
2023-04-15T01:02:40.227Z,62.90
2023-04-15T01:05:09.425Z,62.40
2023-04-15T01:07:37.549Z,62.30
2023-04-15T01:10:06.471Z,62.40
2023-04-15T01:12:35.242Z,62.40
2023-04-15T01:15:03.688Z,62.40
2023-04-15T01:17:33.261Z,62.50
2023-04-15T01:20:01.667Z,62.60
2023-04-15T01:22:29.848Z,62.60
2023-04-15T01:25:08.248Z,62.80
2023-04-15T01:27:40.067Z,63.00
2023-04-15T01:30:09.394Z,62.60
2023-04-15T01:32:37.624Z,62.40
2023-04-15T01:35:06.165Z,62.20
2023-04-15T01:37:34.790Z,62.40
2023-04-15T01:40:03.370Z,62.60
2023-04-15T01:42:31.493Z,62.90
2023-04-15T01:45:00.961Z,63.20
2023-04-15T01:47:29.400Z,63.40
2023-04-15T01:49:57.511Z,63.30
2023-04-15T01:52:25.654Z,63.50
2023-04-15T01:54:53.696Z,63.60
2023-04-15T01:57:21.996Z,63.80
2023-04-15T01:59:50.111Z,64.10
2023-04-15T02:02:19.652Z,64.20
2023-04-15T02:04:47.817Z,64.60
2023-04-15T02:07:15.928Z,64.60
2023-04-15T02:09:46.117Z,64.70
2023-04-15T02:12:14.419Z,64.70
2023-04-15T02:14:42.471Z,64.50
2023-04-15T02:17:10.669Z,64.30
2023-04-15T02:19:40.523Z,64.30
2023-04-15T02:22:09.381Z,64.40
2023-04-15T02:24:37.488Z,64.50
2023-04-15T02:27:06.093Z,64.50
2023-04-15T02:29:34.153Z,64.40
2023-04-15T02:32:02.337Z,64.50
2023-04-15T02:34:31.511Z,64.60
2023-04-15T02:37:01.277Z,65.30
2023-04-15T02:39:29.343Z,64.70
2023-04-15T02:41:59.155Z,64.70
2023-04-15T02:44:27.392Z,64.90
2023-04-15T02:46:55.773Z,65.40
2023-04-15T02:49:23.838Z,65.70
2023-04-15T02:51:51.992Z,65.80
2023-04-15T02:54:23.904Z,65.80
2023-04-15T02:56:55.215Z,66.10
2023-04-15T02:59:23.636Z,65.60
2023-04-15T03:01:51.829Z,65.60
2023-04-15T03:04:20.031Z,65.40
2023-04-15T03:06:48.109Z,65.40
2023-04-15T03:09:16.173Z,65.40
2023-04-15T03:11:45.634Z,65.30
2023-04-15T03:14:13.692Z,65.50
2023-04-15T03:16:41.793Z,65.50
2023-04-15T03:19:09.862Z,65.50
2023-04-15T03:21:37.947Z,65.60
2023-04-15T03:24:06.312Z,65.50
2023-04-15T03:26:34.437Z,65.50
2023-04-15T03:29:03.994Z,65.40
2023-04-15T03:31:32.213Z,65.40
2023-04-15T03:34:00.362Z,65.30
2023-04-15T03:36:32.937Z,65.40
2023-04-15T03:39:02.339Z,65.70
2023-04-15T03:41:30.946Z,65.80
2023-04-15T03:43:59.004Z,65.60
2023-04-15T03:46:28.552Z,65.60
2023-04-15T03:48:56.633Z,66.00
2023-04-15T03:51:24.679Z,66.20
2023-04-15T03:53:52.797Z,66.60
2023-04-15T03:56:21.002Z,66.70
2023-04-15T03:58:49.091Z,66.90
2023-04-15T04:01:17.415Z,66.80
2023-04-15T04:03:46.962Z,66.70
2023-04-15T04:06:15.696Z,66.80
2023-04-15T04:08:43.767Z,66.80
2023-04-15T04:11:11.832Z,66.80
2023-04-15T04:13:39.978Z,66.80
2023-04-15T04:16:08.488Z,66.60
2023-04-15T04:18:36.629Z,66.40
2023-04-15T04:21:06.165Z,66.10
2023-04-15T04:23:34.504Z,66.40
2023-04-15T04:26:02.632Z,66.20
2023-04-15T04:28:30.712Z,66.30
2023-04-15T04:30:58.831Z,66.40
2023-04-15T04:33:26.873Z,66.60
2023-04-15T04:35:54.934Z,66.80
2023-04-15T04:38:24.455Z,66.90
2023-04-15T04:40:52.598Z,67.30
2023-04-15T04:43:20.700Z,67.50
2023-04-15T04:45:48.818Z,67.90
2023-04-15T04:48:17.365Z,68.20
2023-04-15T04:50:47.056Z,68.30
2023-04-15T04:53:16.145Z,68.40
2023-04-15T04:55:45.645Z,68.30
2023-04-15T04:58:13.722Z,68.30
2023-04-15T05:00:42.170Z,68.20
2023-04-15T05:03:10.499Z,68.00
2023-04-15T05:05:39.522Z,68.10
2023-04-15T05:08:07.652Z,67.90
2023-04-15T05:10:35.960Z,67.70
2023-04-15T05:13:05.431Z,67.80
2023-04-15T05:15:35.003Z,68.00
2023-04-15T05:18:03.228Z,67.90
2023-04-15T05:20:31.380Z,68.60
2023-04-15T05:22:59.455Z,67.80
2023-04-15T05:25:28.356Z,67.80
2023-04-15T05:27:56.425Z,67.80
2023-04-15T05:30:26.006Z,67.80
2023-04-15T05:32:54.236Z,67.90
2023-04-15T05:35:22.403Z,67.70
2023-04-15T05:37:50.504Z,67.70
2023-04-15T05:40:18.787Z,67.80
2023-04-15T05:42:46.908Z,67.80
2023-04-15T05:45:14.974Z,67.90
2023-04-15T05:47:44.466Z,68.00
2023-04-15T05:50:12.844Z,68.30
2023-04-15T05:52:41.130Z,68.40
2023-04-15T05:55:09.929Z,68.50
2023-04-15T05:57:37.998Z,68.50
2023-04-15T06:00:07.193Z,68.50
2023-04-15T06:02:35.446Z,68.90
2023-04-15T06:05:09.687Z,68.90
2023-04-15T06:07:38.421Z,69.20
2023-04-15T06:10:07.904Z,69.00
2023-04-15T06:12:36.091Z,69.10
2023-04-15T06:15:04.345Z,69.10
2023-04-15T06:17:32.456Z,69.30
2023-04-15T06:20:00.797Z,69.50
2023-04-15T06:22:30.294Z,69.50
2023-04-15T06:24:58.408Z,70.00
2023-04-15T06:27:26.600Z,70.00
2023-04-15T06:29:54.747Z,70.20
2023-04-15T06:32:22.882Z,70.30
2023-04-15T06:34:51.068Z,70.30
2023-04-15T06:37:19.119Z,70.00
2023-04-15T06:39:48.618Z,69.80
2023-04-15T06:42:16.765Z,69.80
2023-04-15T06:44:45.036Z,69.50
2023-04-15T06:47:14.777Z,69.30
2023-04-15T06:49:43.201Z,69.20
2023-04-15T06:52:12.675Z,69.10
2023-04-15T06:54:40.918Z,69.10
2023-04-15T06:57:10.662Z,68.80
2023-04-15T06:59:38.774Z,68.70
2023-04-15T07:02:06.874Z,68.30
2023-04-15T07:04:35.115Z,68.10
2023-04-15T07:07:03.192Z,67.80
2023-04-15T07:09:32.413Z,67.60
2023-04-15T07:12:00.509Z,67.40
2023-04-15T07:14:30.487Z,67.20
2023-04-15T07:16:58.702Z,67.00
2023-04-15T07:19:27.175Z,66.90
2023-04-15T07:21:55.312Z,66.70
2023-04-15T07:24:26.683Z,66.60
2023-04-15T07:26:56.858Z,66.40
2023-04-15T07:29:26.344Z,66.40
2023-04-15T07:31:57.138Z,67.00
2023-04-15T07:34:25.822Z,66.30
2023-04-15T07:36:53.912Z,66.20
2023-04-15T07:39:22.361Z,66.10
2023-04-15T07:41:50.542Z,65.90
2023-04-15T07:44:18.672Z,65.90
2023-04-15T07:46:46.770Z,65.80
2023-04-15T07:49:19.398Z,65.70
2023-04-15T07:51:47.472Z,65.50
2023-04-15T07:54:15.752Z,65.30
2023-04-15T07:56:43.997Z,65.20
2023-04-15T07:59:13.004Z,65.20
2023-04-15T08:01:41.194Z,64.80
2023-04-15T08:04:09.718Z,64.50
2023-04-15T08:06:39.989Z,64.30
2023-04-15T08:09:08.346Z,64.20
2023-04-15T08:11:36.509Z,64.00
2023-04-15T08:14:04.638Z,63.40
2023-04-15T08:16:33.189Z,63.10
2023-04-15T08:19:01.670Z,62.80
2023-04-15T08:21:30.952Z,62.50
2023-04-15T08:24:01.721Z,62.30
2023-04-15T08:26:29.905Z,62.00
2023-04-15T08:28:58.114Z,62.00
2023-04-15T08:31:28.689Z,61.40
2023-04-15T08:33:59.360Z,60.90
2023-04-15T08:36:28.523Z,60.40
2023-04-15T08:38:56.657Z,60.40
2023-04-15T08:41:27.593Z,60.00
2023-04-15T08:43:59.396Z,59.90
2023-04-15T08:46:27.793Z,59.30
2023-04-15T08:48:59.037Z,59.30
2023-04-15T08:51:27.766Z,58.90
2023-04-15T08:53:56.311Z,58.90
2023-04-15T08:56:27.735Z,58.80
2023-04-15T08:58:56.286Z,58.60
2023-04-15T09:01:24.686Z,58.50
2023-04-15T09:03:54.492Z,58.50
2023-04-15T09:06:24.379Z,58.50
2023-04-15T09:08:53.123Z,58.50
2023-04-15T09:11:23.089Z,58.30
2023-04-15T09:13:52.654Z,58.50
2023-04-15T09:16:20.873Z,58.50
2023-04-15T09:18:48.977Z,58.30
2023-04-15T09:21:19.182Z,58.20
2023-04-15T09:23:57.829Z,58.30
2023-04-15T09:26:36.833Z,58.40
2023-04-15T09:29:13.425Z,58.50
2023-04-15T09:31:42.792Z,58.50
2023-04-15T09:34:11.194Z,58.40
2023-04-15T09:36:57.839Z,58.40
2023-04-15T09:39:25.913Z,58.60
2023-04-15T09:42:08.066Z,58.70
2023-04-15T09:44:37.676Z,58.50
2023-04-15T09:47:05.823Z,58.40
2023-04-15T09:49:34.217Z,58.50
2023-04-15T09:52:05.595Z,58.40
2023-04-15T09:54:39.346Z,58.40
2023-04-15T09:57:08.322Z,58.70
2023-04-15T09:59:37.772Z,58.60
2023-04-15T10:02:07.509Z,59.00
2023-04-15T10:04:39.077Z,59.30
2023-04-15T10:07:08.511Z,59.50
2023-04-15T10:09:37.901Z,59.70
2023-04-15T10:12:06.587Z,59.80
2023-04-15T10:14:39.042Z,60.00
2023-04-15T10:17:08.905Z,60.50
2023-04-15T10:19:39.114Z,60.70
2023-04-15T10:22:08.119Z,61.30
2023-04-15T10:24:37.318Z,61.40
2023-04-15T10:27:06.867Z,61.70
2023-04-15T10:29:37.676Z,62.00
2023-04-15T10:32:06.317Z,62.30
2023-04-15T10:34:34.728Z,62.60
2023-04-15T10:37:04.731Z,63.00
2023-04-15T10:39:44.442Z,63.50
2023-04-15T10:42:14.140Z,63.80
2023-04-15T10:44:46.400Z,63.80
2023-04-15T10:47:18.755Z,64.30
2023-04-15T10:49:49.319Z,64.40
2023-04-15T10:52:19.021Z,64.50
2023-04-15T10:54:47.664Z,64.50
2023-04-15T10:57:18.444Z,64.80
2023-04-15T11:00:11.539Z,65.00
2023-04-15T11:02:49.901Z,65.70
2023-04-15T11:05:19.462Z,65.30
2023-04-15T11:07:53.539Z,64.70
2023-04-15T11:10:55.211Z,65.20
2023-04-15T11:13:28.947Z,65.30
2023-04-15T11:16:01.419Z,65.30
2023-04-15T11:18:32.870Z,65.40
2023-04-15T11:21:05.769Z,65.40
2023-04-15T11:23:39.205Z,65.70
2023-04-15T11:26:11.987Z,66.00
2023-04-15T11:28:42.028Z,65.90
2023-04-15T11:31:12.912Z,66.00
2023-04-15T11:33:48.070Z,66.30
2023-04-15T11:36:16.215Z,66.80
2023-04-15T11:38:46.015Z,66.60
2023-04-15T11:41:14.439Z,67.00
2023-04-15T11:43:42.771Z,67.30
2023-04-15T11:46:14.606Z,67.70
2023-04-15T11:48:44.831Z,68.10
2023-04-15T11:51:14.092Z,68.30
2023-04-15T11:53:43.879Z,68.50
2023-04-15T11:56:13.177Z,68.70
2023-04-15T11:58:42.547Z,69.10
2023-04-15T12:01:12.070Z,69.00
2023-04-15T12:03:42.456Z,69.40
2023-04-15T12:06:19.063Z,69.50
2023-04-15T12:09:12.175Z,69.70
2023-04-15T12:11:47.980Z,70.50
2023-04-15T12:14:25.921Z,69.50
2023-04-15T12:16:58.357Z,69.90
2023-04-15T12:19:28.678Z,69.80
2023-04-15T12:22:01.238Z,69.90
2023-04-15T12:24:32.108Z,70.00
2023-04-15T12:27:03.757Z,69.90
2023-04-15T12:29:32.359Z,70.20
2023-04-15T12:32:08.631Z,69.90
2023-04-15T12:34:38.251Z,70.80
2023-04-15T12:37:09.592Z,70.40
2023-04-15T12:39:38.986Z,70.60
2023-04-15T12:42:07.722Z,70.50
2023-04-15T12:44:36.984Z,70.50
2023-04-15T12:47:06.846Z,70.90
2023-04-15T12:49:35.065Z,71.40
2023-04-15T12:52:04.544Z,71.40
2023-04-15T12:54:33.313Z,71.70
2023-04-15T12:57:04.697Z,71.60
2023-04-15T12:59:34.635Z,71.50
2023-04-15T13:02:03.224Z,71.40
2023-04-15T13:04:33.022Z,70.80
2023-04-15T13:07:01.503Z,71.20
2023-04-15T13:09:30.071Z,71.00
2023-04-15T13:11:58.186Z,71.00
2023-04-15T13:14:27.141Z,71.00
2023-04-15T13:16:55.215Z,71.80
2023-04-15T13:19:23.355Z,71.20
2023-04-15T13:21:52.890Z,71.30
2023-04-15T13:24:21.019Z,71.50
2023-04-15T13:26:50.352Z,70.70
2023-04-15T13:29:18.808Z,71.30
2023-04-15T13:31:47.028Z,71.40
2023-04-15T13:34:15.129Z,71.40
2023-04-15T13:36:43.233Z,71.30
2023-04-15T13:39:12.735Z,71.30
2023-04-15T13:41:42.017Z,71.40
2023-04-15T13:44:10.160Z,71.30
2023-04-15T13:46:39.617Z,71.30
2023-04-15T13:49:07.705Z,71.20
2023-04-15T13:51:36.892Z,71.20
2023-04-15T13:54:05.366Z,71.30
2023-04-15T13:56:35.063Z,71.40
2023-04-15T13:59:04.095Z,71.70
2023-04-15T14:01:32.228Z,71.70
2023-04-15T14:04:00.546Z,71.80
2023-04-15T14:06:29.581Z,71.70
2023-04-15T14:08:57.684Z,71.90
2023-04-15T14:11:25.767Z,72.00
2023-04-15T14:13:55.247Z,71.90
2023-04-15T14:16:23.406Z,71.90
2023-04-15T14:18:51.550Z,71.90
2023-04-15T14:21:19.609Z,72.00
2023-04-15T14:23:47.661Z,72.00
2023-04-15T14:26:15.821Z,72.00
2023-04-15T14:28:45.051Z,72.00
2023-04-15T14:31:15.116Z,72.10
2023-04-15T14:33:43.526Z,72.20
2023-04-15T14:36:11.666Z,72.20
2023-04-15T14:38:40.179Z,72.10
2023-04-15T14:41:09.448Z,72.10
2023-04-15T14:43:38.063Z,72.20
2023-04-15T14:46:06.348Z,72.40
2023-04-15T14:48:35.952Z,72.40
2023-04-15T14:51:04.068Z,72.50
2023-04-15T14:53:32.203Z,72.30
2023-04-15T14:56:00.316Z,72.30
2023-04-15T14:58:28.366Z,72.30
2023-04-15T15:00:56.503Z,72.50
2023-04-15T15:03:25.274Z,72.60
2023-04-15T15:05:55.035Z,72.70
2023-04-15T15:08:23.316Z,72.90
2023-04-15T15:10:51.421Z,72.90
2023-04-15T15:13:20.097Z,73.10
2023-04-15T15:15:49.567Z,73.10
2023-04-15T15:18:19.177Z,73.10
2023-04-15T15:20:47.779Z,73.20
2023-04-15T15:23:17.352Z,73.20
2023-04-15T15:25:45.537Z,73.60
2023-04-15T15:28:13.712Z,73.50
2023-04-15T15:30:41.967Z,73.30
2023-04-15T15:33:10.072Z,73.30
2023-04-15T15:35:38.171Z,73.60
2023-04-15T15:38:06.343Z,73.50
2023-04-15T15:40:35.813Z,73.60
2023-04-15T15:43:04.567Z,73.70
2023-04-15T15:45:32.749Z,73.60
2023-04-15T15:48:01.384Z,73.80
2023-04-15T15:50:29.571Z,74.00
2023-04-15T15:52:58.597Z,74.00
2023-04-15T15:55:27.324Z,74.10
2023-04-15T15:57:56.798Z,74.10
2023-04-15T16:00:25.571Z,74.30
2023-04-15T16:03:06.730Z,74.30
2023-04-15T16:05:35.812Z,74.60
2023-04-15T16:08:03.910Z,74.30
2023-04-15T16:10:32.226Z,74.40
2023-04-15T16:13:01.992Z,74.50
2023-04-15T16:15:30.462Z,74.70
2023-04-15T16:17:58.679Z,74.50
2023-04-15T16:20:28.374Z,74.60
2023-04-15T16:22:58.597Z,74.70
2023-04-15T16:25:26.941Z,75.00
2023-04-15T16:28:05.504Z,74.80
2023-04-15T16:30:41.961Z,74.80
2023-04-15T16:33:10.648Z,75.00
2023-04-15T16:35:38.725Z,74.80
2023-04-15T16:38:07.054Z,74.90
2023-04-15T16:40:35.141Z,75.00
2023-04-15T16:43:04.263Z,75.00
2023-04-15T16:45:32.350Z,75.30
2023-04-15T16:48:01.811Z,75.30
2023-04-15T16:50:29.948Z,75.60
2023-04-15T16:52:58.236Z,75.40
2023-04-15T16:55:26.467Z,75.50
2023-04-15T16:58:02.562Z,75.50
2023-04-15T17:00:32.217Z,75.60
2023-04-15T17:03:02.301Z,75.60
2023-04-15T17:05:31.133Z,75.90
2023-04-15T17:07:59.447Z,75.80
2023-04-15T17:10:27.788Z,75.70
2023-04-15T17:12:57.498Z,75.80
2023-04-15T17:15:26.023Z,76.00
2023-04-15T17:17:54.441Z,76.00
2023-04-15T17:20:24.001Z,75.90
2023-04-15T17:22:52.153Z,76.10
2023-04-15T17:25:20.337Z,76.20
2023-04-15T17:27:48.409Z,76.30
2023-04-15T17:30:16.651Z,76.50
2023-04-15T17:32:44.871Z,76.60
2023-04-15T17:35:13.157Z,76.70
2023-04-15T17:37:42.643Z,76.70
2023-04-15T17:40:11.883Z,76.90
2023-04-15T17:42:40.248Z,76.90
2023-04-15T17:45:09.593Z,76.90
2023-04-15T17:47:37.881Z,77.00
2023-04-15T17:50:06.791Z,76.80
2023-04-15T17:52:35.028Z,76.80
2023-04-15T17:55:04.617Z,76.90
2023-04-15T17:57:32.970Z,77.00
2023-04-15T18:00:01.255Z,76.90
2023-04-15T18:02:29.601Z,77.00
2023-04-15T18:04:58.017Z,77.00
2023-04-15T18:07:26.779Z,77.00
2023-04-15T18:09:55.925Z,77.10
2023-04-15T18:12:25.452Z,77.10
2023-04-15T18:14:53.741Z,77.20
2023-04-15T18:17:21.876Z,77.10
2023-04-15T18:19:50.046Z,77.20
2023-04-15T18:22:18.185Z,77.20
2023-04-15T18:24:46.263Z,77.10
2023-04-15T18:27:14.354Z,77.00
2023-04-15T18:29:43.983Z,77.10
2023-04-15T18:32:12.142Z,77.30
2023-04-15T18:34:40.320Z,77.20
2023-04-15T18:37:08.563Z,77.20
2023-04-15T18:39:36.637Z,77.20
2023-04-15T18:42:04.916Z,77.20
2023-04-15T18:44:33.135Z,77.20
2023-04-15T18:47:02.751Z,77.20
2023-04-15T18:49:33.209Z,77.20
2023-04-15T18:52:01.424Z,77.10
2023-04-15T18:54:29.507Z,77.00
2023-04-15T18:56:57.830Z,77.00
2023-04-15T18:59:30.201Z,77.00
2023-04-15T19:01:59.578Z,77.10
2023-04-15T19:04:29.875Z,77.00
2023-04-15T19:06:59.043Z,77.10
2023-04-15T19:09:27.431Z,77.00
2023-04-15T19:11:56.809Z,76.90
2023-04-15T19:14:25.050Z,76.80
2023-04-15T19:16:53.202Z,76.80
2023-04-15T19:19:21.326Z,76.80
2023-04-15T19:21:51.159Z,76.60
2023-04-15T19:24:19.317Z,76.60
2023-04-15T19:26:50.061Z,76.60
2023-04-15T19:29:18.667Z,76.80
2023-04-15T19:31:46.752Z,76.80
2023-04-15T19:34:14.842Z,76.90
2023-04-15T19:36:43.148Z,76.90
2023-04-15T19:39:12.727Z,77.00
2023-04-15T19:41:40.982Z,77.30
2023-04-15T19:44:09.115Z,77.20
2023-04-15T19:46:37.322Z,77.20
2023-04-15T19:49:05.876Z,77.30
2023-04-15T19:51:34.208Z,77.40
2023-04-15T19:54:02.325Z,77.40
2023-04-15T19:56:34.261Z,77.40
2023-04-15T19:59:02.900Z,77.40
2023-04-15T20:01:31.452Z,77.20
2023-04-15T20:03:59.881Z,77.10
2023-04-15T20:06:28.514Z,76.90
2023-04-15T20:08:56.609Z,76.90
2023-04-15T20:12:45.969Z,76.80
2023-04-15T20:14:18.646Z,76.60
2023-04-15T20:16:46.802Z,76.50
2023-04-15T20:19:14.880Z,76.40
2023-04-15T20:21:42.979Z,76.40
2023-04-15T20:24:11.136Z,76.40
2023-04-15T20:26:39.220Z,76.40
2023-04-15T20:29:07.555Z,76.50
2023-04-15T20:31:37.492Z,76.40
2023-04-15T20:34:05.740Z,76.50
2023-04-15T20:36:33.925Z,76.60
2023-04-15T20:39:02.004Z,76.70
2023-04-15T20:41:30.503Z,76.70
2023-04-15T20:43:58.931Z,76.60
2023-04-15T20:46:27.749Z,76.50
2023-04-15T20:48:58.604Z,76.60
2023-04-15T20:51:27.507Z,76.70
2023-04-15T20:53:55.635Z,76.60
2023-04-15T20:56:23.714Z,76.60
2023-04-15T20:58:51.813Z,76.60
2023-04-15T21:01:20.050Z,76.50
2023-04-15T21:03:48.367Z,76.40
2023-04-15T21:06:17.892Z,76.30
2023-04-15T21:08:46.073Z,76.40
2023-04-15T21:11:28.333Z,76.40
2023-04-15T21:14:03.260Z,76.30
2023-04-15T21:16:31.970Z,76.20
2023-04-15T21:19:00.330Z,76.20
2023-04-15T21:21:29.785Z,76.20
2023-04-15T21:23:58.073Z,76.30
2023-04-15T21:26:26.375Z,76.30
2023-04-15T21:28:54.504Z,76.40
2023-04-15T21:31:22.729Z,76.40
2023-04-15T21:33:50.874Z,76.50
2023-04-15T21:36:18.957Z,76.60
2023-04-15T21:38:48.394Z,76.60
2023-04-15T21:41:16.515Z,76.60
2023-04-15T21:43:44.741Z,76.50
2023-04-15T21:46:22.223Z,76.50
2023-04-15T21:48:53.687Z,76.50
2023-04-15T21:51:21.826Z,76.50
2023-04-15T21:53:52.679Z,76.40
2023-04-15T21:56:24.130Z,76.50
2023-04-15T21:58:55.296Z,76.50
2023-04-15T22:01:23.420Z,76.50
2023-04-15T22:03:51.890Z,76.50
2023-04-15T22:06:20.254Z,76.50
2023-04-15T22:08:56.130Z,76.50
2023-04-15T22:11:28.428Z,76.60
2023-04-15T22:13:57.706Z,76.70
2023-04-15T22:16:26.743Z,76.70
2023-04-15T22:18:55.314Z,76.80
2023-04-15T22:21:24.008Z,76.80
2023-04-15T22:23:53.205Z,76.80
2023-04-15T22:26:42.729Z,76.80
2023-04-15T22:29:11.149Z,76.70
2023-04-15T22:31:39.293Z,76.70
2023-04-15T22:34:08.065Z,77.50
2023-04-15T22:36:36.146Z,76.80
2023-04-15T22:39:04.474Z,77.00
2023-04-15T22:41:32.822Z,77.00
2023-04-15T22:44:02.334Z,77.00
2023-04-15T22:46:30.515Z,77.10
2023-04-15T22:48:58.832Z,77.10
2023-04-15T22:51:28.107Z,77.10
2023-04-15T22:53:56.340Z,77.10
2023-04-15T22:56:24.908Z,77.10
2023-04-15T22:58:53.635Z,77.90
2023-04-15T23:01:23.264Z,77.30
2023-04-15T23:03:57.001Z,77.30
2023-04-15T23:06:31.270Z,77.40
2023-04-15T23:08:59.393Z,77.40
2023-04-15T23:11:27.471Z,77.30
2023-04-15T23:13:55.555Z,77.40
2023-04-15T23:16:25.050Z,77.40
2023-04-15T23:18:53.167Z,77.30
2023-04-15T23:21:22.221Z,77.20
2023-04-15T23:23:52.553Z,77.20
2023-04-15T23:26:20.657Z,77.20
2023-04-15T23:28:48.901Z,77.20
2023-04-15T23:31:17.028Z,77.10
2023-04-15T23:33:46.538Z,77.10
2023-04-15T23:36:15.055Z,77.20
2023-04-15T23:38:45.365Z,77.00
2023-04-15T23:41:13.499Z,77.00
2023-04-15T23:43:41.600Z,77.00
2023-04-15T23:46:09.711Z,77.00
2023-04-15T23:48:38.039Z,77.00
2023-04-15T23:51:08.818Z,77.00
2023-04-15T23:53:37.338Z,77.00
2023-04-15T23:56:06.276Z,77.10
2023-04-15T23:58:34.856Z,76.90
